Time;durP1;ratioP1;P1;durP2;ratioP2;P2;SDS_P1;SDS_P2;PMS_P1;PMS_P2;Temp;Humidity;BMP_temperature;BMP_pressure;BME280_temperature;BME280_humidity;BME280_pressure;Samples;Min_cycle;Max_cycle;Signal;HPM_P1;HPM_P2
2021/11/09 00:01:03;;;;;;;1.70;1.17;;;;;;;-0.34;83.44;101441.34;5086767;28;20486;-73
2021/11/09 00:03:36;;;;;;;2.60;2.05;;;;;;;-0.47;83.50;101433.81;5086397;28;20027;-70
2021/11/09 00:08:54;;;;;;;2.13;1.50;;;;;;;-0.48;84.39;101426.97;5086437;28;20029;-73
2021/11/09 00:11:20;;;;;;;1.60;1.00;;;;;;;-0.47;84.39;101421.06;5086476;28;20460;-72
2021/11/09 00:13:45;;;;;;;1.10;1.00;;;;;;;-0.30;83.75;101420.28;5086241;28;20088;-71
2021/11/09 00:16:11;;;;;;;2.13;1.70;;;;;;;-0.26;83.60;101418.78;5086189;28;20388;-71
2021/11/09 00:18:37;;;;;;;4.78;1.40;;;;;;;-0.21;83.59;101411.38;5084712;28;20025;-72
2021/11/09 00:21:03;;;;;;;2.15;1.40;;;;;;;-0.09;83.13;101412.00;5086165;28;20028;-70
2021/11/09 00:23:28;;;;;;;2.17;1.42;;;;;;;-0.14;83.89;101410.88;5086164;28;20024;-74
2021/11/09 00:25:53;;;;;;;2.05;1.42;;;;;;;-0.22;84.12;101407.06;5086350;28;20080;-70
2021/11/09 00:28:19;;;;;;;1.48;1.25;;;;;;;0.04;83.14;101399.84;5085973;28;20056;-72
2021/11/09 00:30:44;;;;;;;2.58;1.40;;;;;;;0.10;82.91;101418.03;5086275;28;20033;-71
2021/11/09 00:33:10;;;;;;;2.40;1.48;;;;;;;0.11;82.44;101399.38;5085812;28;20060;-71
2021/11/09 00:35:37;;;;;;;3.58;1.77;;;;;;;-0.01;83.24;101405.59;5085721;28;20067;-72
2021/11/09 00:38:05;;;;;;;1.60;1.02;;;;;;;0.11;83.17;101396.81;5085620;28;20032;-71
2021/11/09 00:40:33;;;;;;;1.45;0.90;;;;;;;0.19;82.88;101407.41;5085959;28;20468;-71
2021/11/09 00:42:59;;;;;;;3.72;1.70;;;;;;;-0.06;83.90;101406.16;5085843;28;20039;-71
2021/11/09 00:45:26;;;;;;;1.25;1.00;;;;;;;0.16;82.34;101386.84;5085648;28;20020;-71
2021/11/09 00:47:52;;;;;;;1.92;1.00;;;;;;;0.48;81.62;101403.75;5085368;28;20027;-72
2021/11/09 00:50:21;;;;;;;1.83;1.08;;;;;;;0.54;81.37;101404.88;5085821;28;20029;-71
2021/11/09 00:52:46;;;;;;;1.27;1.08;;;;;;;0.52;81.84;101409.00;5085683;28;20029;-73
2021/11/09 00:55:13;;;;;;;1.13;0.70;;;;;;;0.40;82.13;101407.59;5085609;28;20025;-73
2021/11/09 00:57:40;;;;;;;3.03;1.35;;;;;;;0.61;81.53;101401.78;5085466;28;20040;-74
2021/11/09 01:00:07;;;;;;;0.77;0.77;;;;;;;0.69;81.10;101403.03;5085617;28;20024;-73
2021/11/09 01:02:32;;;;;;;2.58;1.17;;;;;;;0.57;80.88;101393.13;5085175;28;20042;-72
2021/11/09 01:04:58;;;;;;;1.50;1.08;;;;;;;0.46;81.20;101389.16;5085063;28;20024;-71
2021/11/09 01:07:23;;;;;;;1.08;0.98;;;;;;;0.40;81.64;101376.09;5085337;28;20024;-72
2021/11/09 01:09:48;;;;;;;1.65;1.27;;;;;;;0.59;81.25;101377.88;5085292;28;20021;-74
2021/11/09 01:12:14;;;;;;;0.82;0.80;;;;;;;0.47;81.70;101379.00;5085244;28;20024;-73
2021/11/09 01:14:40;;;;;;;1.00;0.85;;;;;;;0.32;81.51;101358.69;5085319;28;20032;-70
2021/11/09 01:17:07;;;;;;;5.28;1.63;;;;;;;0.61;81.18;101361.78;5084841;28;20031;-70
2021/11/09 01:19:33;;;;;;;1.08;0.98;;;;;;;0.67;80.60;101350.97;5083846;28;20013;-73
2021/11/09 01:22:01;;;;;;;1.58;0.93;;;;;;;0.61;81.02;101358.34;5085027;28;20473;-72
2021/11/09 01:24:27;;;;;;;1.60;1.08;;;;;;;0.47;81.55;101339.78;5085132;28;20059;-73
2021/11/09 01:26:52;;;;;;;1.33;1.10;;;;;;;0.65;81.17;101338.94;5085126;28;20020;-74
2021/11/09 01:29:18;;;;;;;1.40;0.88;;;;;;;0.56;81.09;101340.25;5084686;28;20035;-72
2021/11/09 01:31:43;;;;;;;1.63;1.10;;;;;;;0.68;80.71;101336.50;5084958;28;20024;-73
2021/11/09 01:34:09;;;;;;;1.70;1.10;;;;;;;0.47;81.72;101335.56;5084590;28;20071;-71
2021/11/09 01:36:35;;;;;;;1.27;0.95;;;;;;;0.26;82.33;101332.00;5085026;28;20028;-72
2021/11/09 01:39:03;;;;;;;3.28;1.40;;;;;;;0.53;81.63;101349.47;5084711;28;20051;-70
2021/11/09 01:41:28;;;;;;;1.65;1.10;;;;;;;0.22;82.77;101323.28;5084882;28;20079;-71
2021/11/09 01:43:55;;;;;;;1.98;1.38;;;;;;;0.70;81.57;101327.25;5084635;28;20081;-74
2021/11/09 01:46:21;;;;;;;1.30;1.20;;;;;;;0.63;81.58;101331.19;5084795;28;20029;-72
2021/11/09 01:48:47;;;;;;;0.82;0.80;;;;;;;0.46;82.01;101326.13;5084169;28;20116;-73
2021/11/09 01:51:15;;;;;;;1.95;1.48;;;;;;;0.51;82.40;101328.06;5084495;28;20058;-74
2021/11/09 01:53:44;;;;;;;1.58;1.45;;;;;;;0.44;82.23;101340.53;5082410;28;20024;-71
2021/11/09 01:56:12;;;;;;;1.77;1.25;;;;;;;0.33;82.94;101336.59;5083545;28;20052;-71
2021/11/09 01:58:38;;;;;;;2.05;1.23;;;;;;;0.64;82.14;101335.50;5082960;28;20084;-70
2021/11/09 02:01:10;;;;;;;1.90;1.15;;;;;;;0.70;82.11;101327.25;5084186;28;20551;-72
2021/11/09 02:03:41;;;;;;;1.35;1.23;;;;;;;0.64;82.10;101321.84;5083978;28;20025;-73
2021/11/09 02:06:08;;;;;;;1.10;1.00;;;;;;;0.66;82.13;101310.88;5084310;28;20062;-74
2021/11/09 02:08:33;;;;;;;2.90;1.23;;;;;;;0.79;81.97;101324.25;5099447;28;20027;-72
2021/11/09 02:10:59;;;;;;;1.83;1.20;;;;;;;0.59;82.07;101312.28;5084186;28;20024;-76
2021/11/09 02:13:25;;;;;;;1.27;1.10;;;;;;;0.79;81.90;101314.00;5099699;28;20082;-72
2021/11/09 02:15:52;;;;;;;1.90;1.02;;;;;;;0.72;82.03;101326.50;5083919;28;20016;-73
2021/11/09 02:18:18;;;;;;;1.65;1.48;;;;;;;0.80;82.06;101326.00;5083647;28;20024;-71
2021/11/09 02:20:56;;;;;;;1.30;1.10;;;;;;;0.92;81.76;101313.78;5083955;28;20027;-72
2021/11/09 02:23:22;;;;;;;2.05;1.33;;;;;;;0.90;81.52;101305.16;5082304;28;20033;-75
2021/11/09 02:25:47;;;;;;;1.58;1.08;;;;;;;1.00;81.52;101296.22;5083984;28;20050;-72
2021/11/09 02:28:13;;;;;;;0.77;0.75;;;;;;;0.84;81.90;101312.56;5083598;28;20040;-71
2021/11/09 02:30:39;;;;;;;1.58;0.93;;;;;;;0.94;81.90;101301.06;5083900;28;20035;-74
2021/11/09 02:33:04;;;;;;;1.98;1.42;;;;;;;0.90;81.64;101291.50;5083736;28;20020;-72
2021/11/09 02:35:30;;;;;;;1.85;1.15;;;;;;;0.91;82.05;101295.81;5083738;28;20481;-73
2021/11/09 02:37:58;;;;;;;0.80;0.60;;;;;;;0.95;81.71;101270.47;5083693;28;20100;-74
2021/11/09 02:40:24;;;;;;;1.50;0.90;;;;;;;1.08;81.45;101281.22;5099307;28;20071;-73
2021/11/09 02:42:57;;;;;;;1.20;0.85;;;;;;;1.10;81.65;101284.75;5083993;28;20474;-74
2021/11/09 02:45:38;;;;;;;1.90;1.10;;;;;;;1.02;81.67;101273.28;5083768;28;20020;-72
2021/11/09 02:48:31;;;;;;;1.48;1.10;;;;;;;1.15;81.01;101254.25;5083250;28;20028;-74
2021/11/09 02:50:55;;;;;;;1.75;1.08;;;;;;;1.16;81.08;101259.44;5083379;28;20037;-72
2021/11/09 02:55:51;;;;;;;0.98;0.77;;;;;;;1.22;81.15;101253.69;5083753;28;20028;-73
2021/11/09 03:03:36;;;;;;;0.85;0.65;;;;;;;1.09;81.93;101252.28;5087591;28;20029;-71
2021/11/09 03:08:37;;;;;;;1.13;1.03;;;;;;;1.16;82.24;101246.66;5087627;28;20287;-73
2021/11/09 03:11:03;;;;;;;3.20;1.35;;;;;;;1.30;81.87;101237.00;5103243;28;20247;-74
2021/11/09 03:13:29;;;;;;;3.08;1.02;;;;;;;1.41;81.56;101231.47;5103115;28;20035;-74
2021/11/09 03:15:59;;;;;;;2.45;1.25;;;;;;;1.43;81.51;101230.75;5087485;28;20028;-73
2021/11/09 03:18:27;;;;;;;1.42;1.10;;;;;;;1.56;81.08;101224.47;5085664;28;20091;-74
2021/11/09 03:39:58;;;;;;;1.85;1.02;;;;;;;1.44;81.86;101237.59;5102892;28;20069;-71
2021/11/09 03:40:27;;;;;;;1.92;1.20;;;;;;;1.73;81.80;101207.22;5087057;28;20035;-71
2021/11/09 03:45:37;;;;;;;3.80;1.77;;;;;;;1.79;82.16;101203.19;5086842;28;20456;-73
2021/11/09 03:48:05;;;;;;;1.73;1.10;;;;;;;2.02;81.91;101192.97;5086445;28;20012;-74
2021/11/09 03:50:32;;;;;;;1.08;0.90;;;;;;;2.02;81.94;101182.72;5086894;28;20165;-74
2021/11/09 03:55:53;;;;;;;1.73;1.00;;;;;;;2.02;82.23;101178.47;5086873;28;20476;-72
2021/11/09 03:58:43;;;;;;;4.95;1.50;;;;;;;2.04;82.63;101181.09;5086278;28;20024;-70
2021/11/09 04:01:12;;;;;;;1.63;1.00;;;;;;;2.17;82.60;101174.78;5086300;28;20025;-71
2021/11/09 04:07:02;;;;;;;1.27;1.00;;;;;;;2.50;81.77;101169.16;5086566;28;20024;-72
2021/11/09 04:14:44;;;;;;;1.13;0.98;;;;;;;2.41;82.51;101144.06;5063273;28;20051;-72
2021/11/09 04:17:19;;;;;;;2.95;1.58;;;;;;;2.45;82.77;101148.50;5063082;28;20536;-72
2021/11/09 04:20:09;;;;;;;1.92;1.13;;;;;;;2.57;82.66;101142.06;5063452;28;20562;-72
2021/11/09 04:28:15;;;;;;;3.90;2.13;;;;;;;2.66;83.29;101168.03;5063025;28;20090;-70
2021/11/09 04:49:12;;;;;;;2.00;1.40;;;;;;;2.89;84.22;101129.50;5085101;28;20055;-76
2021/11/09 05:10:37;;;;;;;2.30;1.23;;;;;;;2.87;85.19;101100.38;5084338;28;20392;-74
2021/11/09 05:13:03;;;;;;;1.98;1.63;;;;;;;2.85;85.40;101110.59;5084871;28;20084;-73
2021/11/09 05:15:29;;;;;;;4.00;2.08;;;;;;;2.93;85.73;101105.72;5085049;28;20099;-72
2021/11/09 05:17:54;;;;;;;1.90;1.38;;;;;;;2.86;85.58;101096.06;5084455;28;20185;-71
2021/11/09 05:20:20;;;;;;;12.35;2.95;;;;;;;2.89;85.57;101103.00;5084967;28;20101;-71
2021/11/09 05:22:45;;;;;;;2.65;1.70;;;;;;;3.02;85.71;101112.84;5099865;28;20027;-69
2021/11/09 05:25:11;;;;;;;2.10;1.25;;;;;;;2.92;85.85;101091.16;5084753;28;20187;-75
2021/11/09 05:27:37;;;;;;;11.40;3.10;;;;;;;2.63;86.69;101080.75;5084348;28;20120;-71
2021/11/09 05:30:03;;;;;;;3.63;1.20;;;;;;;3.01;86.17;101085.47;5083245;28;20084;-72
2021/11/09 05:32:29;;;;;;;3.88;1.58;;;;;;;3.02;86.27;101094.91;5084290;28;20054;-66
2021/11/09 05:34:54;;;;;;;2.33;1.40;;;;;;;3.02;85.71;101073.53;5084388;28;20044;-74
2021/11/09 05:37:23;;;;;;;3.22;2.03;;;;;;;3.04;85.50;101062.47;5082999;28;20502;-73
2021/11/09 05:39:52;;;;;;;5.55;1.50;;;;;;;3.04;86.11;101088.13;5083997;28;20074;-74
2021/11/09 05:42:18;;;;;;;4.82;2.15;;;;;;;3.09;86.36;101091.72;5083968;28;20183;-75
2021/11/09 05:44:43;;;;;;;3.60;2.40;;;;;;;3.19;86.41;101085.22;5084801;28;20380;-74
2021/11/09 05:47:10;;;;;;;4.72;2.22;;;;;;;3.24;86.12;101081.91;5084247;28;20056;-73
2021/11/09 05:49:35;;;;;;;4.38;1.40;;;;;;;3.21;86.24;101090.41;5084282;28;20032;-73
2021/11/09 05:52:02;;;;;;;2.75;2.13;;;;;;;3.26;86.23;101105.94;5084273;28;20017;-72
2021/11/09 05:54:28;;;;;;;4.07;2.38;;;;;;;3.24;86.88;101095.63;5084308;28;20035;-71
2021/11/09 05:56:54;;;;;;;1.38;1.27;;;;;;;3.24;87.07;101074.22;5084314;28;20024;-71
2021/11/09 05:59:19;;;;;;;2.17;1.65;;;;;;;3.29;86.57;101078.66;5084104;28;20020;-72
2021/11/09 06:01:46;;;;;;;4.15;1.73;;;;;;;3.28;86.85;101051.28;5082682;28;20027;-71
2021/11/09 06:04:11;;;;;;;1.42;1.20;;;;;;;3.45;86.71;101071.47;5082280;28;20016;-69
2021/11/09 06:06:37;;;;;;;4.93;1.70;;;;;;;3.11;87.65;101061.00;5083975;28;20063;-69
2021/11/09 06:09:03;;;;;;;5.55;2.17;;;;;;;3.30;87.80;101061.59;5083556;28;20392;-69
2021/11/09 06:11:29;;;;;;;3.13;1.75;;;;;;;3.44;87.72;101060.34;5084087;28;20030;-69
2021/11/09 06:13:54;;;;;;;1.60;1.50;;;;;;;3.52;87.28;101052.00;5083569;28;20040;-72
2021/11/09 06:16:20;;;;;;;3.72;2.55;;;;;;;3.38;88.72;101072.09;5099434;28;20054;-73
2021/11/09 06:18:45;;;;;;;2.97;1.30;;;;;;;3.52;88.70;101060.56;5083757;28;20017;-73
2021/11/09 06:21:10;;;;;;;6.75;2.80;;;;;;;3.38;88.82;101047.31;5083641;28;20027;-72
2021/11/09 06:23:36;;;;;;;3.92;1.55;;;;;;;3.58;88.83;101067.59;5083503;28;20100;-72
2021/11/09 06:26:02;;;;;;;3.97;1.67;;;;;;;3.56;89.16;101067.53;5084017;28;20080;-71
2021/11/09 06:28:28;;;;;;;8.55;2.15;;;;;;;3.50;89.54;101066.50;5083313;28;20547;-73
2021/11/09 06:30:54;;;;;;;4.78;1.90;;;;;;;3.75;88.79;101052.72;5083688;28;20028;-73
2021/11/09 06:33:20;;;;;;;4.15;1.50;;;;;;;3.79;88.96;101058.78;5098533;28;20047;-74
2021/11/09 06:35:45;;;;;;;6.20;2.45;;;;;;;3.86;89.12;101063.31;5098690;28;20576;-72
2021/11/09 06:38:11;;;;;;;3.30;1.80;;;;;;;3.87;89.97;101069.28;5082002;28;20070;-72
2021/11/09 06:40:37;;;;;;;4.00;1.92;;;;;;;4.01;89.90;101054.31;5084121;28;20033;-71
2021/11/09 06:43:03;;;;;;;4.78;1.73;;;;;;;4.11;89.83;101042.56;5083563;28;20020;-73
2021/11/09 06:45:29;;;;;;;4.20;2.42;;;;;;;4.12;89.70;101047.75;5083739;28;20028;-74
2021/11/09 06:47:55;;;;;;;2.60;1.17;;;;;;;4.21;89.63;101031.75;5083564;28;20094;-75
2021/11/09 06:50:21;;;;;;;4.10;2.83;;;;;;;4.02;90.25;101018.38;5083638;28;20032;-75
2021/11/09 06:52:46;;;;;;;5.03;2.42;;;;;;;3.96;90.32;101013.06;5083606;28;20032;-75
2021/11/09 06:55:12;;;;;;;3.80;2.25;;;;;;;4.13;90.39;101003.25;5083603;28;20035;-75
2021/11/09 06:57:39;;;;;;;5.53;1.88;;;;;;;4.35;90.50;101029.56;5083363;28;20035;-75
2021/11/09 07:00:07;;;;;;;7.32;3.63;;;;;;;4.13;91.45;101028.97;5083633;28;20484;-76
2021/11/09 07:02:35;;;;;;;6.13;2.10;;;;;;;4.46;90.83;101014.41;5083282;28;20036;-74
2021/11/09 07:05:00;;;;;;;5.57;2.22;;;;;;;4.12;91.71;101001.50;5083860;28;20016;-75
2021/11/09 07:07:25;;;;;;;3.95;1.85;;;;;;;4.49;91.24;101000.78;5083476;28;20548;-75
2021/11/09 07:09:51;;;;;;;5.18;1.95;;;;;;;4.47;90.96;101022.16;5083547;28;20020;-75
2021/11/09 07:12:17;;;;;;;2.25;1.35;;;;;;;4.73;90.65;101004.81;5082244;28;20393;-75
2021/11/09 07:14:42;;;;;;;3.92;1.77;;;;;;;4.51;91.27;100994.84;5083674;28;20025;-75
2021/11/09 07:17:09;;;;;;;3.88;1.77;;;;;;;4.61;90.90;100989.94;5083210;28;20020;-75
2021/11/09 07:19:36;;;;;;;3.50;1.45;;;;;;;4.68;91.36;101004.69;5083652;28;20027;-75
2021/11/09 07:22:01;;;;;;;5.68;2.92;;;;;;;4.45;91.95;101000.69;5083815;28;20025;-76
2021/11/09 07:24:30;;;;;;;3.92;2.40;;;;;;;4.75;91.15;100980.88;5082318;28;20032;-73
2021/11/09 07:26:55;;;;;;;5.97;2.25;;;;;;;4.87;90.63;100982.88;5082683;28;20020;-74
2021/11/09 07:29:21;;;;;;;2.95;1.70;;;;;;;4.78;91.76;100992.91;5097835;28;20016;-74
2021/11/09 07:31:46;;;;;;;20.52;3.70;;;;;;;4.62;91.97;100971.13;5083006;28;20025;-74
